sensor_id;sensor_type;location;lat;lon;timestamp;P1;durP1;ratioP1;P2;durP2;ratioP2
79130;SDS011;72396;45.194;9.142;2023-12-22T00:00:08;10.27;;;6.10;;
79130;SDS011;72396;45.194;9.142;2023-12-22T00:02:34;12.13;;;6.38;;
79130;SDS011;72396;45.194;9.142;2023-12-22T00:04:59;10.63;;;6.55;;
79130;SDS011;72396;45.194;9.142;2023-12-22T00:07:24;10.85;;;6.82;;
79130;SDS011;72396;45.194;9.142;2023-12-22T00:09:50;10.77;;;6.78;;
79130;SDS011;72396;45.194;9.142;2023-12-22T00:12:15;11.43;;;6.85;;
79130;SDS011;72396;45.194;9.142;2023-12-22T00:14:41;11.25;;;6.88;;
79130;SDS011;72396;45.194;9.142;2023-12-22T00:17:06;11.35;;;6.30;;
79130;SDS011;72396;45.194;9.142;2023-12-22T00:19:32;11.13;;;6.95;;
79130;SDS011;72396;45.194;9.142;2023-12-22T00:21:57;13.02;;;7.38;;
79130;SDS011;72396;45.194;9.142;2023-12-22T00:24:23;14.63;;;6.93;;
79130;SDS011;72396;45.194;9.142;2023-12-22T00:26:48;13.65;;;7.97;;
79130;SDS011;72396;45.194;9.142;2023-12-22T00:29:14;11.60;;;7.20;;
79130;SDS011;72396;45.194;9.142;2023-12-22T00:31:39;11.80;;;7.28;;
79130;SDS011;72396;45.194;9.142;2023-12-22T00:34:04;11.85;;;7.63;;
79130;SDS011;72396;45.194;9.142;2023-12-22T00:36:30;14.15;;;7.25;;
79130;SDS011;72396;45.194;9.142;2023-12-22T00:38:55;12.07;;;7.13;;
79130;SDS011;72396;45.194;9.142;2023-12-22T00:41:20;13.40;;;7.40;;
79130;SDS011;72396;45.194;9.142;2023-12-22T00:43:46;13.70;;;7.13;;
79130;SDS011;72396;45.194;9.142;2023-12-22T00:46:12;12.82;;;6.97;;
79130;SDS011;72396;45.194;9.142;2023-12-22T00:48:38;11.95;;;6.45;;
79130;SDS011;72396;45.194;9.142;2023-12-22T00:51:03;14.10;;;7.22;;
79130;SDS011;72396;45.194;9.142;2023-12-22T00:53:32;12.43;;;6.70;;
79130;SDS011;72396;45.194;9.142;2023-12-22T00:55:57;13.55;;;7.32;;
79130;SDS011;72396;45.194;9.142;2023-12-22T00:58:22;11.52;;;7.07;;
79130;SDS011;72396;45.194;9.142;2023-12-22T01:00:48;12.60;;;7.57;;
79130;SDS011;72396;45.194;9.142;2023-12-22T01:03:13;12.77;;;6.82;;
79130;SDS011;72396;45.194;9.142;2023-12-22T01:05:38;13.60;;;7.88;;
79130;SDS011;72396;45.194;9.142;2023-12-22T01:08:04;12.35;;;7.60;;
79130;SDS011;72396;45.194;9.142;2023-12-22T01:10:29;14.35;;;8.30;;
79130;SDS011;72396;45.194;9.142;2023-12-22T01:12:55;13.50;;;7.35;;
79130;SDS011;72396;45.194;9.142;2023-12-22T01:15:20;10.95;;;6.78;;
79130;SDS011;72396;45.194;9.142;2023-12-22T01:17:45;12.45;;;7.18;;
79130;SDS011;72396;45.194;9.142;2023-12-22T01:20:11;11.88;;;7.53;;
79130;SDS011;72396;45.194;9.142;2023-12-22T01:22:36;12.57;;;7.28;;
79130;SDS011;72396;45.194;9.142;2023-12-22T01:25:03;13.07;;;7.22;;
79130;SDS011;72396;45.194;9.142;2023-12-22T01:27:30;10.80;;;6.38;;
79130;SDS011;72396;45.194;9.142;2023-12-22T01:29:55;10.63;;;7.07;;
79130;SDS011;72396;45.194;9.142;2023-12-22T01:32:21;12.20;;;6.75;;
79130;SDS011;72396;45.194;9.142;2023-12-22T01:34:46;13.25;;;7.45;;
79130;SDS011;72396;45.194;9.142;2023-12-22T01:37:12;13.93;;;7.78;;
79130;SDS011;72396;45.194;9.142;2023-12-22T01:39:37;9.93;;;6.95;;
79130;SDS011;72396;45.194;9.142;2023-12-22T01:42:03;13.15;;;7.18;;
79130;SDS011;72396;45.194;9.142;2023-12-22T01:44:29;13.40;;;6.93;;
79130;SDS011;72396;45.194;9.142;2023-12-22T01:46:54;10.55;;;6.85;;
79130;SDS011;72396;45.194;9.142;2023-12-22T01:49:20;11.93;;;6.57;;
79130;SDS011;72396;45.194;9.142;2023-12-22T01:51:46;11.68;;;7.00;;
79130;SDS011;72396;45.194;9.142;2023-12-22T01:54:13;11.27;;;6.30;;
79130;SDS011;72396;45.194;9.142;2023-12-22T01:56:39;13.70;;;5.68;;
79130;SDS011;72396;45.194;9.142;2023-12-22T01:59:05;9.57;;;5.90;;
79130;SDS011;72396;45.194;9.142;2023-12-22T02:01:31;10.60;;;6.30;;
79130;SDS011;72396;45.194;9.142;2023-12-22T02:03:58;11.60;;;6.55;;
79130;SDS011;72396;45.194;9.142;2023-12-22T02:06:24;13.15;;;6.75;;
79130;SDS011;72396;45.194;9.142;2023-12-22T02:08:49;10.32;;;6.18;;
79130;SDS011;72396;45.194;9.142;2023-12-22T02:11:15;11.90;;;6.32;;
79130;SDS011;72396;45.194;9.142;2023-12-22T02:13:41;13.40;;;6.53;;
79130;SDS011;72396;45.194;9.142;2023-12-22T02:16:11;10.73;;;6.22;;
79130;SDS011;72396;45.194;9.142;2023-12-22T02:18:46;9.73;;;5.50;;
79130;SDS011;72396;45.194;9.142;2023-12-22T02:21:15;12.02;;;5.97;;
79130;SDS011;72396;45.194;9.142;2023-12-22T02:23:41;11.18;;;6.53;;
79130;SDS011;72396;45.194;9.142;2023-12-22T02:26:08;9.05;;;5.90;;
79130;SDS011;72396;45.194;9.142;2023-12-22T02:28:39;12.57;;;6.25;;
79130;SDS011;72396;45.194;9.142;2023-12-22T02:33:38;9.43;;;5.90;;
79130;SDS011;72396;45.194;9.142;2023-12-22T02:36:06;11.95;;;5.72;;
79130;SDS011;72396;45.194;9.142;2023-12-22T02:38:33;10.32;;;5.85;;
79130;SDS011;72396;45.194;9.142;2023-12-22T02:41:00;9.35;;;6.15;;
79130;SDS011;72396;45.194;9.142;2023-12-22T02:43:25;9.30;;;5.38;;
79130;SDS011;72396;45.194;9.142;2023-12-22T02:45:51;10.13;;;6.10;;
79130;SDS011;72396;45.194;9.142;2023-12-22T02:48:17;10.75;;;5.93;;
79130;SDS011;72396;45.194;9.142;2023-12-22T02:50:42;10.30;;;6.03;;
79130;SDS011;72396;45.194;9.142;2023-12-22T02:53:07;10.70;;;5.93;;
79130;SDS011;72396;45.194;9.142;2023-12-22T02:55:33;11.90;;;5.97;;
79130;SDS011;72396;45.194;9.142;2023-12-22T02:57:58;11.68;;;5.65;;
79130;SDS011;72396;45.194;9.142;2023-12-22T03:00:24;8.82;;;5.35;;
79130;SDS011;72396;45.194;9.142;2023-12-22T03:02:49;10.10;;;5.65;;
79130;SDS011;72396;45.194;9.142;2023-12-22T03:05:14;9.48;;;5.60;;
79130;SDS011;72396;45.194;9.142;2023-12-22T03:07:40;10.20;;;5.53;;
79130;SDS011;72396;45.194;9.142;2023-12-22T03:10:05;10.18;;;5.50;;
79130;SDS011;72396;45.194;9.142;2023-12-22T03:12:31;10.32;;;6.20;;
79130;SDS011;72396;45.194;9.142;2023-12-22T03:14:56;11.38;;;5.50;;
79130;SDS011;72396;45.194;9.142;2023-12-22T03:17:21;8.75;;;5.05;;
79130;SDS011;72396;45.194;9.142;2023-12-22T03:19:47;10.52;;;5.38;;
79130;SDS011;72396;45.194;9.142;2023-12-22T03:22:12;8.48;;;4.90;;
79130;SDS011;72396;45.194;9.142;2023-12-22T03:24:37;9.18;;;5.43;;
79130;SDS011;72396;45.194;9.142;2023-12-22T03:27:03;9.30;;;5.47;;
79130;SDS011;72396;45.194;9.142;2023-12-22T03:29:29;11.48;;;5.10;;
79130;SDS011;72396;45.194;9.142;2023-12-22T03:31:54;9.02;;;4.82;;
79130;SDS011;72396;45.194;9.142;2023-12-22T03:34:19;10.32;;;5.15;;
79130;SDS011;72396;45.194;9.142;2023-12-22T03:36:45;11.15;;;5.22;;
79130;SDS011;72396;45.194;9.142;2023-12-22T03:39:13;10.43;;;4.97;;
79130;SDS011;72396;45.194;9.142;2023-12-22T03:41:39;7.93;;;4.55;;
79130;SDS011;72396;45.194;9.142;2023-12-22T03:44:04;7.80;;;4.35;;
79130;SDS011;72396;45.194;9.142;2023-12-22T03:46:30;10.60;;;4.45;;
79130;SDS011;72396;45.194;9.142;2023-12-22T03:48:55;9.80;;;4.53;;
79130;SDS011;72396;45.194;9.142;2023-12-22T03:51:20;7.22;;;4.03;;
79130;SDS011;72396;45.194;9.142;2023-12-22T03:53:46;7.10;;;4.35;;
79130;SDS011;72396;45.194;9.142;2023-12-22T03:56:11;8.70;;;3.75;;
79130;SDS011;72396;45.194;9.142;2023-12-22T03:58:37;7.95;;;3.92;;
79130;SDS011;72396;45.194;9.142;2023-12-22T04:01:02;6.78;;;4.13;;
79130;SDS011;72396;45.194;9.142;2023-12-22T04:03:28;6.47;;;3.95;;
79130;SDS011;72396;45.194;9.142;2023-12-22T04:05:54;5.97;;;3.60;;
79130;SDS011;72396;45.194;9.142;2023-12-22T04:08:19;7.25;;;3.72;;
79130;SDS011;72396;45.194;9.142;2023-12-22T04:10:47;7.80;;;3.30;;
79130;SDS011;72396;45.194;9.142;2023-12-22T04:13:13;6.25;;;3.53;;
79130;SDS011;72396;45.194;9.142;2023-12-22T04:15:38;6.35;;;3.35;;
79130;SDS011;72396;45.194;9.142;2023-12-22T04:18:04;7.38;;;3.47;;
79130;SDS011;72396;45.194;9.142;2023-12-22T04:20:29;6.78;;;3.53;;
79130;SDS011;72396;45.194;9.142;2023-12-22T04:22:55;4.70;;;2.95;;
79130;SDS011;72396;45.194;9.142;2023-12-22T04:25:20;7.40;;;3.33;;
79130;SDS011;72396;45.194;9.142;2023-12-22T04:27:47;7.95;;;3.22;;
79130;SDS011;72396;45.194;9.142;2023-12-22T04:30:13;4.88;;;2.92;;
79130;SDS011;72396;45.194;9.142;2023-12-22T04:32:38;6.75;;;3.13;;
79130;SDS011;72396;45.194;9.142;2023-12-22T04:35:04;5.30;;;3.05;;
79130;SDS011;72396;45.194;9.142;2023-12-22T04:37:29;5.15;;;2.80;;
79130;SDS011;72396;45.194;9.142;2023-12-22T04:39:55;5.57;;;2.95;;
79130;SDS011;72396;45.194;9.142;2023-12-22T04:42:20;7.57;;;2.90;;
79130;SDS011;72396;45.194;9.142;2023-12-22T04:44:45;10.80;;;3.00;;
79130;SDS011;72396;45.194;9.142;2023-12-22T04:47:11;4.28;;;2.60;;
79130;SDS011;72396;45.194;9.142;2023-12-22T04:49:37;5.47;;;2.50;;
79130;SDS011;72396;45.194;9.142;2023-12-22T04:52:03;8.32;;;2.83;;
79130;SDS011;72396;45.194;9.142;2023-12-22T04:54:28;4.30;;;2.22;;
79130;SDS011;72396;45.194;9.142;2023-12-22T04:56:53;6.10;;;2.15;;
79130;SDS011;72396;45.194;9.142;2023-12-22T04:59:19;5.68;;;2.58;;
79130;SDS011;72396;45.194;9.142;2023-12-22T05:01:44;5.50;;;2.40;;
79130;SDS011;72396;45.194;9.142;2023-12-22T05:04:10;3.83;;;2.20;;
79130;SDS011;72396;45.194;9.142;2023-12-22T05:06:36;4.95;;;2.08;;
79130;SDS011;72396;45.194;9.142;2023-12-22T05:09:02;4.70;;;2.10;;
79130;SDS011;72396;45.194;9.142;2023-12-22T05:11:27;5.40;;;1.98;;
79130;SDS011;72396;45.194;9.142;2023-12-22T05:13:53;8.98;;;2.65;;
79130;SDS011;72396;45.194;9.142;2023-12-22T05:16:18;4.25;;;1.85;;
79130;SDS011;72396;45.194;9.142;2023-12-22T05:18:43;5.20;;;2.05;;
79130;SDS011;72396;45.194;9.142;2023-12-22T05:21:11;4.15;;;1.80;;
79130;SDS011;72396;45.194;9.142;2023-12-22T05:23:38;3.05;;;1.50;;
79130;SDS011;72396;45.194;9.142;2023-12-22T05:26:03;5.43;;;1.92;;
79130;SDS011;72396;45.194;9.142;2023-12-22T05:28:28;4.78;;;2.00;;
79130;SDS011;72396;45.194;9.142;2023-12-22T05:30:54;3.45;;;1.73;;
79130;SDS011;72396;45.194;9.142;2023-12-22T05:33:19;4.70;;;1.75;;
79130;SDS011;72396;45.194;9.142;2023-12-22T05:35:44;5.88;;;2.00;;
79130;SDS011;72396;45.194;9.142;2023-12-22T05:38:10;3.53;;;1.70;;
79130;SDS011;72396;45.194;9.142;2023-12-22T05:40:35;4.20;;;1.77;;
79130;SDS011;72396;45.194;9.142;2023-12-22T05:43:00;4.93;;;2.13;;
79130;SDS011;72396;45.194;9.142;2023-12-22T05:45:26;5.43;;;1.90;;
79130;SDS011;72396;45.194;9.142;2023-12-22T05:47:51;3.75;;;1.80;;
79130;SDS011;72396;45.194;9.142;2023-12-22T05:50:16;4.70;;;1.83;;
79130;SDS011;72396;45.194;9.142;2023-12-22T05:52:42;4.05;;;1.92;;
79130;SDS011;72396;45.194;9.142;2023-12-22T05:55:11;4.45;;;1.73;;
79130;SDS011;72396;45.194;9.142;2023-12-22T05:57:36;4.38;;;1.60;;
79130;SDS011;72396;45.194;9.142;2023-12-22T06:00:02;3.20;;;1.48;;
79130;SDS011;72396;45.194;9.142;2023-12-22T06:02:32;3.38;;;1.42;;
79130;SDS011;72396;45.194;9.142;2023-12-22T06:04:57;3.25;;;1.48;;
79130;SDS011;72396;45.194;9.142;2023-12-22T06:07:22;3.65;;;1.58;;
79130;SDS011;72396;45.194;9.142;2023-12-22T06:09:49;3.30;;;1.70;;
79130;SDS011;72396;45.194;9.142;2023-12-22T06:12:14;2.97;;;1.60;;
79130;SDS011;72396;45.194;9.142;2023-12-22T06:14:39;3.35;;;1.40;;
79130;SDS011;72396;45.194;9.142;2023-12-22T06:17:05;3.42;;;1.52;;
79130;SDS011;72396;45.194;9.142;2023-12-22T06:19:30;4.10;;;1.52;;
79130;SDS011;72396;45.194;9.142;2023-12-22T06:21:56;3.05;;;1.70;;
79130;SDS011;72396;45.194;9.142;2023-12-22T06:24:22;3.92;;;1.80;;
79130;SDS011;72396;45.194;9.142;2023-12-22T06:26:48;3.28;;;1.40;;
79130;SDS011;72396;45.194;9.142;2023-12-22T06:29:13;5.13;;;1.50;;
79130;SDS011;72396;45.194;9.142;2023-12-22T06:31:39;3.08;;;1.50;;
79130;SDS011;72396;45.194;9.142;2023-12-22T06:34:04;6.10;;;1.65;;
79130;SDS011;72396;45.194;9.142;2023-12-22T06:36:30;2.80;;;1.63;;
79130;SDS011;72396;45.194;9.142;2023-12-22T06:38:55;4.30;;;1.83;;
79130;SDS011;72396;45.194;9.142;2023-12-22T06:41:23;5.65;;;1.48;;
79130;SDS011;72396;45.194;9.142;2023-12-22T06:43:50;3.72;;;1.60;;
79130;SDS011;72396;45.194;9.142;2023-12-22T06:46:19;6.70;;;1.60;;
79130;SDS011;72396;45.194;9.142;2023-12-22T06:48:45;3.13;;;1.50;;
79130;SDS011;72396;45.194;9.142;2023-12-22T06:51:17;3.38;;;1.50;;
79130;SDS011;72396;45.194;9.142;2023-12-22T06:53:50;2.25;;;1.25;;
79130;SDS011;72396;45.194;9.142;2023-12-22T06:56:16;3.22;;;1.30;;
79130;SDS011;72396;45.194;9.142;2023-12-22T06:58:43;4.35;;;1.30;;
79130;SDS011;72396;45.194;9.142;2023-12-22T07:01:08;2.60;;;1.17;;
79130;SDS011;72396;45.194;9.142;2023-12-22T07:03:33;2.35;;;1.15;;
79130;SDS011;72396;45.194;9.142;2023-12-22T07:05:59;3.88;;;1.50;;
79130;SDS011;72396;45.194;9.142;2023-12-22T07:08:24;3.97;;;1.40;;
79130;SDS011;72396;45.194;9.142;2023-12-22T07:10:50;3.13;;;1.20;;
79130;SDS011;72396;45.194;9.142;2023-12-22T07:13:15;4.32;;;1.35;;
79130;SDS011;72396;45.194;9.142;2023-12-22T07:15:41;4.38;;;1.60;;
79130;SDS011;72396;45.194;9.142;2023-12-22T07:18:06;3.63;;;1.27;;
79130;SDS011;72396;45.194;9.142;2023-12-22T07:20:31;2.75;;;1.33;;
79130;SDS011;72396;45.194;9.142;2023-12-22T07:22:57;2.65;;;1.23;;
79130;SDS011;72396;45.194;9.142;2023-12-22T07:25:22;3.42;;;1.70;;
79130;SDS011;72396;45.194;9.142;2023-12-22T07:27:47;3.25;;;1.23;;
79130;SDS011;72396;45.194;9.142;2023-12-22T07:30:13;3.28;;;1.38;;
79130;SDS011;72396;45.194;9.142;2023-12-22T07:32:41;2.45;;;1.20;;
79130;SDS011;72396;45.194;9.142;2023-12-22T07:35:08;3.17;;;1.10;;
79130;SDS011;72396;45.194;9.142;2023-12-22T07:37:35;2.88;;;1.20;;
79130;SDS011;72396;45.194;9.142;2023-12-22T07:40:01;3.08;;;1.33;;
79130;SDS011;72396;45.194;9.142;2023-12-22T07:42:26;4.28;;;1.20;;
79130;SDS011;72396;45.194;9.142;2023-12-22T07:44:51;2.35;;;1.20;;
79130;SDS011;72396;45.194;9.142;2023-12-22T07:47:17;2.63;;;1.15;;
79130;SDS011;72396;45.194;9.142;2023-12-22T07:49:42;2.88;;;1.42;;
79130;SDS011;72396;45.194;9.142;2023-12-22T07:52:08;5.82;;;1.42;;
79130;SDS011;72396;45.194;9.142;2023-12-22T07:54:34;2.53;;;1.02;;
79130;SDS011;72396;45.194;9.142;2023-12-22T07:57:01;2.80;;;1.10;;
79130;SDS011;72396;45.194;9.142;2023-12-22T07:59:26;7.97;;;1.60;;
79130;SDS011;72396;45.194;9.142;2023-12-22T08:01:51;2.78;;;1.13;;
79130;SDS011;72396;45.194;9.142;2023-12-22T08:04:17;1.88;;;1.00;;
79130;SDS011;72396;45.194;9.142;2023-12-22T08:06:42;3.28;;;1.15;;
79130;SDS011;72396;45.194;9.142;2023-12-22T08:09:08;5.65;;;1.20;;
79130;SDS011;72396;45.194;9.142;2023-12-22T08:11:33;2.67;;;1.00;;
79130;SDS011;72396;45.194;9.142;2023-12-22T08:13:58;2.00;;;0.90;;
79130;SDS011;72396;45.194;9.142;2023-12-22T08:16:24;1.73;;;0.80;;
79130;SDS011;72396;45.194;9.142;2023-12-22T08:18:49;2.17;;;0.90;;
79130;SDS011;72396;45.194;9.142;2023-12-22T08:21:15;1.70;;;0.80;;
79130;SDS011;72396;45.194;9.142;2023-12-22T08:23:41;3.00;;;1.10;;
79130;SDS011;72396;45.194;9.142;2023-12-22T08:26:07;3.08;;;0.93;;
79130;SDS011;72396;45.194;9.142;2023-12-22T08:28:32;4.88;;;1.10;;
79130;SDS011;72396;45.194;9.142;2023-12-22T08:30:57;1.48;;;0.80;;
79130;SDS011;72396;45.194;9.142;2023-12-22T08:33:23;3.70;;;1.10;;
79130;SDS011;72396;45.194;9.142;2023-12-22T08:35:48;3.33;;;1.25;;
79130;SDS011;72396;45.194;9.142;2023-12-22T08:38:13;4.70;;;1.20;;
79130;SDS011;72396;45.194;9.142;2023-12-22T08:40:40;2.22;;;1.40;;
79130;SDS011;72396;45.194;9.142;2023-12-22T08:43:05;3.25;;;1.13;;
79130;SDS011;72396;45.194;9.142;2023-12-22T08:45:31;3.35;;;1.10;;
79130;SDS011;72396;45.194;9.142;2023-12-22T08:47:57;2.65;;;0.93;;
79130;SDS011;72396;45.194;9.142;2023-12-22T08:50:23;2.15;;;1.05;;
79130;SDS011;72396;45.194;9.142;2023-12-22T08:52:48;1.92;;;0.85;;
79130;SDS011;72396;45.194;9.142;2023-12-22T08:55:13;3.10;;;1.10;;
79130;SDS011;72396;45.194;9.142;2023-12-22T08:57:39;2.05;;;1.00;;
79130;SDS011;72396;45.194;9.142;2023-12-22T09:00:05;2.30;;;1.20;;
79130;SDS011;72396;45.194;9.142;2023-12-22T09:02:30;1.95;;;0.90;;
79130;SDS011;72396;45.194;9.142;2023-12-22T09:04:56;3.85;;;1.05;;
79130;SDS011;72396;45.194;9.142;2023-12-22T09:07:21;5.88;;;1.02;;
79130;SDS011;72396;45.194;9.142;2023-12-22T09:09:47;2.60;;;0.93;;
79130;SDS011;72396;45.194;9.142;2023-12-22T09:12:13;3.13;;;1.00;;
79130;SDS011;72396;45.194;9.142;2023-12-22T09:14:38;4.38;;;1.00;;
79130;SDS011;72396;45.194;9.142;2023-12-22T09:17:03;2.05;;;0.80;;
79130;SDS011;72396;45.194;9.142;2023-12-22T09:19:31;3.95;;;1.00;;
79130;SDS011;72396;45.194;9.142;2023-12-22T09:21:58;2.33;;;1.13;;
79130;SDS011;72396;45.194;9.142;2023-12-22T09:24:23;2.38;;;0.93;;
79130;SDS011;72396;45.194;9.142;2023-12-22T09:26:48;2.20;;;0.80;;
79130;SDS011;72396;45.194;9.142;2023-12-22T09:29:15;1.83;;;0.73;;
79130;SDS011;72396;45.194;9.142;2023-12-22T09:31:41;1.65;;;0.75;;
79130;SDS011;72396;45.194;9.142;2023-12-22T09:34:07;3.33;;;0.90;;
79130;SDS011;72396;45.194;9.142;2023-12-22T09:36:32;1.02;;;0.57;;
79130;SDS011;72396;45.194;9.142;2023-12-22T09:38:57;1.58;;;0.70;;
79130;SDS011;72396;45.194;9.142;2023-12-22T09:41:23;1.38;;;0.57;;
79130;SDS011;72396;45.194;9.142;2023-12-22T09:43:49;0.93;;;0.57;;
79130;SDS011;72396;45.194;9.142;2023-12-22T09:46:16;0.80;;;0.50;;
79130;SDS011;72396;45.194;9.142;2023-12-22T09:48:45;1.02;;;0.52;;
79130;SDS011;72396;45.194;9.142;2023-12-22T09:51:11;0.57;;;0.40;;
79130;SDS011;72396;45.194;9.142;2023-12-22T09:53:39;2.53;;;0.57;;
79130;SDS011;72396;45.194;9.142;2023-12-22T09:56:05;1.08;;;0.50;;
79130;SDS011;72396;45.194;9.142;2023-12-22T09:58:32;2.65;;;0.52;;
79130;SDS011;72396;45.194;9.142;2023-12-22T10:01:00;0.70;;;0.50;;
79130;SDS011;72396;45.194;9.142;2023-12-22T10:03:30;1.33;;;0.50;;
79130;SDS011;72396;45.194;9.142;2023-12-22T10:05:58;0.57;;;0.38;;
79130;SDS011;72396;45.194;9.142;2023-12-22T10:08:23;1.33;;;0.50;;
79130;SDS011;72396;45.194;9.142;2023-12-22T10:10:51;0.73;;;0.50;;
79130;SDS011;72396;45.194;9.142;2023-12-22T10:13:17;0.95;;;0.52;;
79130;SDS011;72396;45.194;9.142;2023-12-22T10:15:43;1.67;;;0.57;;
79130;SDS011;72396;45.194;9.142;2023-12-22T10:18:09;1.02;;;0.45;;
79130;SDS011;72396;45.194;9.142;2023-12-22T10:20:35;2.15;;;0.50;;
79130;SDS011;72396;45.194;9.142;2023-12-22T10:23:01;0.90;;;0.70;;
79130;SDS011;72396;45.194;9.142;2023-12-22T10:25:30;2.15;;;0.63;;
79130;SDS011;72396;45.194;9.142;2023-12-22T10:27:55;0.70;;;0.50;;
79130;SDS011;72396;45.194;9.142;2023-12-22T10:30:22;0.40;;;0.25;;
79130;SDS011;72396;45.194;9.142;2023-12-22T10:32:50;1.63;;;0.38;;
79130;SDS011;72396;45.194;9.142;2023-12-22T10:35:16;1.10;;;0.30;;
79130;SDS011;72396;45.194;9.142;2023-12-22T10:37:42;1.90;;;0.60;;
79130;SDS011;72396;45.194;9.142;2023-12-22T10:40:08;0.47;;;0.30;;
79130;SDS011;72396;45.194;9.142;2023-12-22T10:42:34;0.57;;;0.40;;
79130;SDS011;72396;45.194;9.142;2023-12-22T10:45:00;1.25;;;0.55;;
79130;SDS011;72396;45.194;9.142;2023-12-22T10:47:26;0.88;;;0.38;;
79130;SDS011;72396;45.194;9.142;2023-12-22T10:49:54;0.70;;;0.30;;
79130;SDS011;72396;45.194;9.142;2023-12-22T10:52:19;1.25;;;0.43;;
79130;SDS011;72396;45.194;9.142;2023-12-22T10:54:45;0.57;;;0.32;;
79130;SDS011;72396;45.194;9.142;2023-12-22T10:57:11;0.10;;;0.10;;
79130;SDS011;72396;45.194;9.142;2023-12-22T10:59:38;0.68;;;0.30;;
79130;SDS011;72396;45.194;9.142;2023-12-22T11:02:11;0.57;;;0.38;;
79130;SDS011;72396;45.194;9.142;2023-12-22T11:04:41;3.85;;;0.40;;
79130;SDS011;72396;45.194;9.142;2023-12-22T11:07:16;0.70;;;0.50;;
79130;SDS011;72396;45.194;9.142;2023-12-22T11:09:44;0.90;;;0.47;;
79130;SDS011;72396;45.194;9.142;2023-12-22T11:12:13;0.70;;;0.38;;
79130;SDS011;72396;45.194;9.142;2023-12-22T11:14:39;0.47;;;0.30;;
79130;SDS011;72396;45.194;9.142;2023-12-22T11:17:05;0.20;;;0.20;;
79130;SDS011;72396;45.194;9.142;2023-12-22T11:19:32;1.08;;;0.45;;
79130;SDS011;72396;45.194;9.142;2023-12-22T11:21:59;0.45;;;0.40;;
79130;SDS011;72396;45.194;9.142;2023-12-22T11:24:27;0.68;;;0.30;;
79130;SDS011;72396;45.194;9.142;2023-12-22T11:26:54;1.05;;;0.40;;
79130;SDS011;72396;45.194;9.142;2023-12-22T11:29:23;3.88;;;1.30;;
79130;SDS011;72396;45.194;9.142;2023-12-22T11:31:51;3.40;;;0.40;;
79130;SDS011;72396;45.194;9.142;2023-12-22T11:34:21;0.60;;;0.20;;
79130;SDS011;72396;45.194;9.142;2023-12-22T11:36:47;0.47;;;0.38;;
79130;SDS011;72396;45.194;9.142;2023-12-22T11:39:13;2.63;;;0.55;;
79130;SDS011;72396;45.194;9.142;2023-12-22T11:41:39;0.40;;;0.28;;
79130;SDS011;72396;45.194;9.142;2023-12-22T11:44:06;0.52;;;0.30;;
79130;SDS011;72396;45.194;9.142;2023-12-22T11:46:32;1.65;;;0.40;;
79130;SDS011;72396;45.194;9.142;2023-12-22T11:48:59;0.43;;;0.40;;
79130;SDS011;72396;45.194;9.142;2023-12-22T11:51:24;1.50;;;0.60;;
79130;SDS011;72396;45.194;9.142;2023-12-22T11:53:56;0.65;;;0.40;;
79130;SDS011;72396;45.194;9.142;2023-12-22T11:56:22;0.25;;;0.20;;
79130;SDS011;72396;45.194;9.142;2023-12-22T11:58:51;0.68;;;0.25;;
79130;SDS011;72396;45.194;9.142;2023-12-22T12:01:20;1.40;;;0.60;;
79130;SDS011;72396;45.194;9.142;2023-12-22T12:03:52;0.28;;;0.28;;
79130;SDS011;72396;45.194;9.142;2023-12-22T12:08:56;0.77;;;0.50;;
79130;SDS011;72396;45.194;9.142;2023-12-22T12:11:23;0.35;;;0.30;;
79130;SDS011;72396;45.194;9.142;2023-12-22T12:13:49;0.57;;;0.50;;
79130;SDS011;72396;45.194;9.142;2023-12-22T12:16:19;0.68;;;0.22;;
79130;SDS011;72396;45.194;9.142;2023-12-22T12:18:49;1.60;;;0.35;;
79130;SDS011;72396;45.194;9.142;2023-12-22T12:21:15;0.50;;;0.30;;
79130;SDS011;72396;45.194;9.142;2023-12-22T12:23:41;0.65;;;0.32;;
79130;SDS011;72396;45.194;9.142;2023-12-22T12:26:07;2.72;;;0.80;;
79130;SDS011;72396;45.194;9.142;2023-12-22T12:28:34;1.63;;;0.52;;
79130;SDS011;72396;45.194;9.142;2023-12-22T12:31:07;1.45;;;0.63;;
79130;SDS011;72396;45.194;9.142;2023-12-22T12:33:35;2.03;;;0.70;;
79130;SDS011;72396;45.194;9.142;2023-12-22T12:36:01;0.40;;;0.40;;
79130;SDS011;72396;45.194;9.142;2023-12-22T12:38:43;1.45;;;0.70;;
79130;SDS011;72396;45.194;9.142;2023-12-22T12:41:30;0.65;;;0.47;;
79130;SDS011;72396;45.194;9.142;2023-12-22T12:43:56;0.63;;;0.52;;
79130;SDS011;72396;45.194;9.142;2023-12-22T12:46:23;1.23;;;0.47;;
79130;SDS011;72396;45.194;9.142;2023-12-22T12:49:03;0.32;;;0.30;;
79130;SDS011;72396;45.194;9.142;2023-12-22T12:51:35;0.63;;;0.50;;
79130;SDS011;72396;45.194;9.142;2023-12-22T12:54:02;1.42;;;0.45;;
79130;SDS011;72396;45.194;9.142;2023-12-22T12:56:28;0.82;;;0.40;;
79130;SDS011;72396;45.194;9.142;2023-12-22T12:58:54;0.57;;;0.40;;
79130;SDS011;72396;45.194;9.142;2023-12-22T13:01:19;0.73;;;0.50;;
79130;SDS011;72396;45.194;9.142;2023-12-22T13:03:51;0.38;;;0.32;;
79130;SDS011;72396;45.194;9.142;2023-12-22T13:06:19;0.55;;;0.40;;
79130;SDS011;72396;45.194;9.142;2023-12-22T13:08:51;0.70;;;0.40;;
79130;SDS011;72396;45.194;9.142;2023-12-22T13:11:23;0.75;;;0.50;;
79130;SDS011;72396;45.194;9.142;2023-12-22T13:13:53;2.10;;;0.35;;
79130;SDS011;72396;45.194;9.142;2023-12-22T13:16:19;1.17;;;0.50;;
79130;SDS011;72396;45.194;9.142;2023-12-22T13:18:46;0.10;;;0.10;;
79130;SDS011;72396;45.194;9.142;2023-12-22T13:21:12;0.40;;;0.40;;
79130;SDS011;72396;45.194;9.142;2023-12-22T13:23:38;0.50;;;0.47;;
79130;SDS011;72396;45.194;9.142;2023-12-22T13:26:04;1.48;;;0.40;;
79130;SDS011;72396;45.194;9.142;2023-12-22T13:28:29;0.85;;;0.50;;
79130;SDS011;72396;45.194;9.142;2023-12-22T13:30:54;2.33;;;0.60;;
79130;SDS011;72396;45.194;9.142;2023-12-22T13:33:20;2.60;;;0.55;;
79130;SDS011;72396;45.194;9.142;2023-12-22T13:35:46;1.02;;;0.52;;
79130;SDS011;72396;45.194;9.142;2023-12-22T13:38:12;1.77;;;0.70;;
79130;SDS011;72396;45.194;9.142;2023-12-22T13:40:38;1.20;;;0.40;;
79130;SDS011;72396;45.194;9.142;2023-12-22T13:43:04;0.77;;;0.50;;
79130;SDS011;72396;45.194;9.142;2023-12-22T13:45:30;1.38;;;0.50;;
79130;SDS011;72396;45.194;9.142;2023-12-22T13:47:56;1.48;;;0.52;;
79130;SDS011;72396;45.194;9.142;2023-12-22T13:50:22;0.65;;;0.40;;
79130;SDS011;72396;45.194;9.142;2023-12-22T13:52:48;0.75;;;0.43;;
79130;SDS011;72396;45.194;9.142;2023-12-22T13:55:16;0.85;;;0.50;;
79130;SDS011;72396;45.194;9.142;2023-12-22T13:57:43;1.08;;;0.38;;
79130;SDS011;72396;45.194;9.142;2023-12-22T14:02:43;0.82;;;0.60;;
79130;SDS011;72396;45.194;9.142;2023-12-22T14:05:10;0.93;;;0.45;;
79130;SDS011;72396;45.194;9.142;2023-12-22T14:07:35;6.30;;;0.80;;
79130;SDS011;72396;45.194;9.142;2023-12-22T14:10:07;0.45;;;0.20;;
79130;SDS011;72396;45.194;9.142;2023-12-22T14:12:33;2.00;;;0.50;;
79130;SDS011;72396;45.194;9.142;2023-12-22T14:14:59;0.47;;;0.30;;
79130;SDS011;72396;45.194;9.142;2023-12-22T14:17:24;0.20;;;0.20;;
79130;SDS011;72396;45.194;9.142;2023-12-22T14:19:50;2.83;;;0.40;;
79130;SDS011;72396;45.194;9.142;2023-12-22T14:22:15;0.30;;;0.30;;
79130;SDS011;72396;45.194;9.142;2023-12-22T14:24:40;0.20;;;0.20;;
79130;SDS011;72396;45.194;9.142;2023-12-22T14:27:06;0.77;;;0.40;;
79130;SDS011;72396;45.194;9.142;2023-12-22T14:29:31;0.13;;;0.10;;
79130;SDS011;72396;45.194;9.142;2023-12-22T14:31:58;3.25;;;0.47;;
79130;SDS011;72396;45.194;9.142;2023-12-22T14:34:23;0.40;;;0.40;;
79130;SDS011;72396;45.194;9.142;2023-12-22T14:36:49;0.77;;;0.30;;
79130;SDS011;72396;45.194;9.142;2023-12-22T14:39:14;1.20;;;0.50;;
79130;SDS011;72396;45.194;9.142;2023-12-22T14:41:41;1.33;;;0.65;;
79130;SDS011;72396;45.194;9.142;2023-12-22T14:44:09;1.80;;;0.63;;
79130;SDS011;72396;45.194;9.142;2023-12-22T14:46:40;1.23;;;0.50;;